Time;durP1;ratioP1;P1;durP2;ratioP2;P2;SDS_P1;SDS_P2;PMS_P1;PMS_P2;Temp;Humidity;BMP_temperature;BMP_pressure;BME280_temperature;BME280_humidity;BME280_pressure;Samples;Min_cycle;Max_cycle;Signal;HPM_P1;HPM_P2
2022/09/26 00:00:31;;;;;;;;;4.00;2.00;;;;;;;;5068858;27;45761;-76
2022/09/26 00:02:56;;;;;;;;;1.00;1.00;;;;;;;;5111929;27;45336;-78
2022/09/26 00:05:21;;;;;;;;;1.67;1.67;;;;;;;;5105959;27;45401;-78
2022/09/26 00:07:47;;;;;;;;;0.67;0.67;;;;;;;;5104861;27;45838;-78
2022/09/26 00:10:12;;;;;;;;;2.00;2.00;;;;;;;;5095050;27;45806;-78
2022/09/26 00:12:37;;;;;;;;;2.33;0.67;;;;;;;;5114065;27;46081;-77
2022/09/26 00:15:02;;;;;;;;;2.00;1.00;;;;;;;;5083470;27;46789;-78
2022/09/26 00:17:28;;;;;;;;;2.33;1.33;;;;;;;;5100543;27;45611;-78
2022/09/26 00:19:53;;;;;;;;;2.67;2.67;;;;;;;;5108030;27;45414;-77
2022/09/26 00:22:19;;;;;;;;;0.33;0.33;;;;;;;;5119864;27;45804;-78
2022/09/26 00:24:44;;;;;;;;;4.00;1.00;;;;;;;;5112468;27;45802;-76
2022/09/26 00:27:09;;;;;;;;;1.67;1.67;;;;;;;;5084053;27;47271;-77
2022/09/26 00:29:34;;;;;;;;;3.33;1.33;;;;;;;;5100308;27;45858;-77
2022/09/26 00:32:00;;;;;;;;;2.67;1.00;;;;;;;;5105114;27;45848;-78
2022/09/26 00:34:25;;;;;;;;;2.33;1.67;;;;;;;;5080465;27;46522;-77
2022/09/26 00:36:51;;;;;;;;;2.00;1.00;;;;;;;;5100560;27;46148;-77
2022/09/26 00:39:16;;;;;;;;;1.00;1.00;;;;;;;;5100199;27;45453;-78
2022/09/26 00:41:42;;;;;;;;;2.33;2.00;;;;;;;;5105498;27;45477;-78
2022/09/26 00:44:26;;;;;;;;;2.33;1.33;;;;;;;;5105500;27;45957;-78
2022/09/26 00:46:51;;;;;;;;;1.33;1.33;;;;;;;;5108202;27;46167;-77
2022/09/26 00:49:22;;;;;;;;;3.67;2.00;;;;;;;;5112566;27;45829;-77
2022/09/26 00:51:50;;;;;;;;;2.50;2.00;;;;;;;;5106179;27;45834;-79
2022/09/26 00:54:17;;;;;;;;;0.67;0.67;;;;;;;;5110386;27;45993;-79
2022/09/26 00:56:45;;;;;;;;;1.00;1.00;;;;;;;;5107089;27;47251;-76
2022/09/26 00:59:10;;;;;;;;;0.67;0.67;;;;;;;;5112003;27;45430;-77
2022/09/26 01:01:35;;;;;;;;;1.33;1.33;;;;;;;;5101654;27;45574;-75
2022/09/26 01:04:02;;;;;;;;;1.33;1.00;;;;;;;;5089512;27;46074;-78
2022/09/26 01:06:30;;;;;;;;;2.00;1.00;;;;;;;;5095052;27;45441;-76
2022/09/26 01:09:06;;;;;;;;;1.33;0.00;;;;;;;;5112578;27;45518;-76
2022/09/26 01:11:32;;;;;;;;;2.00;2.00;;;;;;;;5106760;27;45512;-77
2022/09/26 01:13:58;;;;;;;;;4.67;2.00;;;;;;;;5087192;27;45933;-77
2022/09/26 01:16:23;;;;;;;;;3.00;3.00;;;;;;;;5103467;27;46449;-77
2022/09/26 01:18:49;;;;;;;;;1.33;0.33;;;;;;;;5104633;27;45646;-78
2022/09/26 01:21:14;;;;;;;;;1.67;1.67;;;;;;;;5110553;27;45793;-76
2022/09/26 01:23:42;;;;;;;;;2.67;2.00;;;;;;;;5093888;27;45525;-77
2022/09/26 01:26:27;;;;;;;;;1.00;0.67;;;;;;;;5111530;27;46407;-79
2022/09/26 01:29:10;;;;;;;;;4.00;2.00;;;;;;;;5111243;27;45457;-77
2022/09/26 01:31:36;;;;;;;;;1.67;0.67;;;;;;;;5103986;27;45886;-78
2022/09/26 01:34:11;;;;;;;;;2.33;1.67;;;;;;;;5099387;27;45526;-78
2022/09/26 01:36:55;;;;;;;;;1.00;1.00;;;;;;;;5092691;27;46975;-77
2022/09/26 01:39:38;;;;;;;;;1.00;1.00;;;;;;;;5099052;27;45757;-78
2022/09/26 01:42:39;;;;;;;;;1.33;1.33;;;;;;;;5109316;27;45534;-78
2022/09/26 01:45:14;;;;;;;;;0.67;0.67;;;;;;;;5035635;28;45521;-78
2022/09/26 01:47:42;;;;;;;;;1.00;0.67;;;;;;;;5099226;27;45600;-74
2022/09/26 01:50:19;;;;;;;;;0.00;0.00;;;;;;;;5106001;27;45722;-77
2022/09/26 01:52:50;;;;;;;;;2.67;1.33;;;;;;;;5100132;27;45740;-76
2022/09/26 01:55:33;;;;;;;;;1.00;0.67;;;;;;;;5099638;27;46434;-77
2022/09/26 01:58:04;;;;;;;;;1.33;1.33;;;;;;;;5115484;27;46174;-78
2022/09/26 02:00:34;;;;;;;;;2.33;1.33;;;;;;;;5111928;27;45515;-77
2022/09/26 02:03:03;;;;;;;;;0.67;0.67;;;;;;;;5107270;27;45569;-77
2022/09/26 02:05:32;;;;;;;;;2.00;0.67;;;;;;;;5108550;27;45853;-77
2022/09/26 02:08:13;;;;;;;;;2.33;2.00;;;;;;;;5103776;27;46198;-76
2022/09/26 02:10:43;;;;;;;;;3.67;0.67;;;;;;;;5093147;27;45906;-76
2022/09/26 02:13:12;;;;;;;;;1.00;1.00;;;;;;;;5111270;27;45673;-77
2022/09/26 02:15:39;;;;;;;;;0.67;0.67;;;;;;;;5117593;27;45585;-76
2022/09/26 02:18:13;;;;;;;;;1.00;1.00;;;;;;;;5097956;27;47349;-75
2022/09/26 02:20:42;;;;;;;;;1.00;0.67;;;;;;;;5109404;27;45773;-76
2022/09/26 02:23:07;;;;;;;;;2.33;1.33;;;;;;;;5100537;27;45395;-77
2022/09/26 02:25:36;;;;;;;;;2.33;2.33;;;;;;;;5110365;27;45844;-75
2022/09/26 02:28:02;;;;;;;;;1.33;1.33;;;;;;;;5115956;27;47457;-77
2022/09/26 02:30:27;;;;;;;;;2.67;1.67;;;;;;;;5103218;27;45374;-76
2022/09/26 02:32:53;;;;;;;;;1.33;0.67;;;;;;;;5107236;27;45544;-78
2022/09/26 02:38:04;;;;;;;;;0.67;0.67;;;;;;;;5125351;27;45420;-76
2022/09/26 02:40:53;;;;;;;;;2.67;0.67;;;;;;;;5091621;27;45460;-76
2022/09/26 02:43:24;;;;;;;;;1.00;1.00;;;;;;;;5075192;27;45643;-76
2022/09/26 02:46:10;;;;;;;;;0.67;0.67;;;;;;;;5092867;27;45877;-78
2022/09/26 02:48:58;;;;;;;;;0.00;0.00;;;;;;;;5105659;27;47265;-77
2022/09/26 02:51:32;;;;;;;;;0.00;0.00;;;;;;;;5076207;27;45735;-76
2022/09/26 02:54:10;;;;;;;;;1.33;0.67;;;;;;;;5080054;27;45800;-76
2022/09/26 02:56:46;;;;;;;;;0.67;0.67;;;;;;;;5093512;27;47011;-78
2022/09/26 02:59:20;;;;;;;;;3.67;2.00;;;;;;;;5096488;27;47518;-76
2022/09/26 03:02:05;;;;;;;;;2.00;1.00;;;;;;;;5115400;27;45809;-77
2022/09/26 03:04:44;;;;;;;;;1.33;1.33;;;;;;;;5089431;27;45814;-75
2022/09/26 03:07:16;;;;;;;;;0.67;0.67;;;;;;;;5103380;27;45942;-77
2022/09/26 03:09:42;;;;;;;;;1.67;1.00;;;;;;;;5114649;27;45440;-77
2022/09/26 03:12:08;;;;;;;;;0.00;0.00;;;;;;;;5107300;27;45483;-77
2022/09/26 03:14:35;;;;;;;;;1.00;1.00;;;;;;;;5092730;27;45684;-77
2022/09/26 03:17:01;;;;;;;;;5.67;2.67;;;;;;;;5115464;27;45841;-77
2022/09/26 03:19:45;;;;;;;;;2.33;0.67;;;;;;;;5113908;27;46389;-78
2022/09/26 03:22:11;;;;;;;;;1.67;1.00;;;;;;;;5086296;27;45749;-79
2022/09/26 03:24:39;;;;;;;;;3.00;1.00;;;;;;;;5112189;27;45564;-77
2022/09/26 03:27:05;;;;;;;;;1.67;1.67;;;;;;;;5100060;27;45972;-78
2022/09/26 03:29:33;;;;;;;;;1.00;0.33;;;;;;;;5101512;27;45594;-77
2022/09/26 03:31:59;;;;;;;;;2.00;0.33;;;;;;;;5114484;27;45507;-76
2022/09/26 03:34:26;;;;;;;;;4.00;1.00;;;;;;;;5113987;27;45428;-79
2022/09/26 03:36:51;;;;;;;;;0.33;0.33;;;;;;;;5111449;27;46084;-78
2022/09/26 03:39:16;;;;;;;;;1.67;1.00;;;;;;;;5108190;27;45790;-78
2022/09/26 03:41:42;;;;;;;;;0.33;0.33;;;;;;;;5102076;27;45462;-78
2022/09/26 03:44:07;;;;;;;;;1.00;1.00;;;;;;;;5107145;27;45776;-77
2022/09/26 03:46:32;;;;;;;;;0.00;0.00;;;;;;;;5112967;27;45744;-77
2022/09/26 03:48:58;;;;;;;;;1.67;0.67;;;;;;;;5102009;27;46857;-77
2022/09/26 03:51:23;;;;;;;;;1.67;1.00;;;;;;;;5108421;27;46018;-78
2022/09/26 03:53:49;;;;;;;;;1.00;1.00;;;;;;;;5082209;27;45742;-79
2022/09/26 03:56:18;;;;;;;;;0.33;0.33;;;;;;;;5090205;27;45593;-77
2022/09/26 03:58:44;;;;;;;;;1.33;0.00;;;;;;;;5100245;27;46258;-78
2022/09/26 04:01:12;;;;;;;;;0.67;0.67;;;;;;;;5111220;27;45446;-77
2022/09/26 04:03:38;;;;;;;;;0.67;0.67;;;;;;;;5104553;27;45491;-78
2022/09/26 04:06:05;;;;;;;;;1.67;1.67;;;;;;;;5113047;27;45787;-78
2022/09/26 04:08:30;;;;;;;;;1.67;0.67;;;;;;;;5108515;27;46038;-77
2022/09/26 04:11:03;;;;;;;;;0.33;0.33;;;;;;;;5091614;27;45399;-76
2022/09/26 04:13:29;;;;;;;;;0.00;0.00;;;;;;;;5107001;27;45748;-76
2022/09/26 04:15:55;;;;;;;;;1.67;0.67;;;;;;;;5110407;27;47305;-78
2022/09/26 04:18:20;;;;;;;;;2.67;0.67;;;;;;;;5115146;27;45518;-78
2022/09/26 04:20:46;;;;;;;;;1.00;1.00;;;;;;;;5113314;27;45497;-76
2022/09/26 04:23:12;;;;;;;;;2.00;1.00;;;;;;;;5119328;27;45671;-77
2022/09/26 04:25:37;;;;;;;;;0.00;0.00;;;;;;;;5113241;27;45883;-78
2022/09/26 04:28:02;;;;;;;;;7.00;7.00;;;;;;;;5115701;27;46649;-79
2022/09/26 04:30:29;;;;;;;;;0.67;0.33;;;;;;;;5111622;27;45539;-80
2022/09/26 04:32:54;;;;;;;;;1.00;1.00;;;;;;;;5111912;27;45452;-78
2022/09/26 04:35:19;;;;;;;;;2.00;1.00;;;;;;;;5114328;27;45526;-79
2022/09/26 04:37:45;;;;;;;;;5.00;2.33;;;;;;;;5110234;27;46008;-78
2022/09/26 04:40:10;;;;;;;;;1.33;1.33;;;;;;;;5091629;27;45539;-78
2022/09/26 04:42:35;;;;;;;;;0.00;0.00;;;;;;;;5096770;27;45560;-81
2022/09/26 04:45:01;;;;;;;;;1.67;1.67;;;;;;;;5114004;27;45558;-80
2022/09/26 04:47:26;;;;;;;;;1.67;0.67;;;;;;;;5092094;27;45574;-78
2022/09/26 04:49:51;;;;;;;;;1.00;1.00;;;;;;;;5108624;27;45715;-78
2022/09/26 04:52:17;;;;;;;;;1.67;1.67;;;;;;;;5085522;27;45367;-80
2022/09/26 04:54:43;;;;;;;;;1.67;0.00;;;;;;;;5113171;27;45979;-78
2022/09/26 04:57:08;;;;;;;;;2.00;2.00;;;;;;;;5091329;27;47399;-78
2022/09/26 04:59:33;;;;;;;;;0.00;0.00;;;;;;;;5074830;27;45969;-77
2022/09/26 05:02:00;;;;;;;;;2.00;1.67;;;;;;;;5093618;27;45845;-79
2022/09/26 05:04:25;;;;;;;;;1.67;0.67;;;;;;;;5113032;27;45504;-77
2022/09/26 05:06:50;;;;;;;;;0.67;0.67;;;;;;;;5110547;27;46474;-77
2022/09/26 05:09:16;;;;;;;;;0.00;0.00;;;;;;;;5106736;27;45336;-78
2022/09/26 05:11:41;;;;;;;;;1.00;0.00;;;;;;;;5087838;27;45383;-75
2022/09/26 05:14:07;;;;;;;;;2.00;1.00;;;;;;;;5110776;27;45393;-79
2022/09/26 05:16:33;;;;;;;;;0.67;0.67;;;;;;;;5091786;27;47412;-78
2022/09/26 05:18:58;;;;;;;;;0.67;0.67;;;;;;;;5091433;27;46755;-78
2022/09/26 05:21:23;;;;;;;;;0.33;0.33;;;;;;;;5100821;27;45670;-79
2022/09/26 05:26:33;;;;;;;;;1.00;0.33;;;;;;;;5104344;27;46251;-79
2022/09/26 05:29:00;;;;;;;;;2.00;0.00;;;;;;;;5095093;27;45465;-80
2022/09/26 05:31:27;;;;;;;;;3.33;3.00;;;;;;;;5098981;27;45575;-80
2022/09/26 05:33:55;;;;;;;;;1.00;1.00;;;;;;;;5106967;27;45799;-79
2022/09/26 05:36:20;;;;;;;;;0.00;0.00;;;;;;;;5111419;27;45688;-80
2022/09/26 05:38:46;;;;;;;;;0.00;0.00;;;;;;;;5083267;27;45524;-80
2022/09/26 05:41:12;;;;;;;;;5.67;2.00;;;;;;;;5101688;27;45688;-82
2022/09/26 05:43:37;;;;;;;;;0.00;0.00;;;;;;;;5108694;27;45565;-81
2022/09/26 05:46:04;;;;;;;;;1.00;1.00;;;;;;;;5108227;27;46578;-81
2022/09/26 05:48:31;;;;;;;;;2.00;0.67;;;;;;;;5112839;27;45540;-81
2022/09/26 05:51:00;;;;;;;;;1.67;0.00;;;;;;;;5103053;27;45807;-82
2022/09/26 05:53:25;;;;;;;;;1.00;1.00;;;;;;;;5113360;27;45744;-81
2022/09/26 05:55:51;;;;;;;;;2.00;2.00;;;;;;;;5104528;27;45821;-85
2022/09/26 05:58:19;;;;;;;;;2.67;1.00;;;;;;;;5084479;27;45730;-79
2022/09/26 06:00:49;;;;;;;;;0.33;0.33;;;;;;;;5102543;27;45563;-83
2022/09/26 06:03:14;;;;;;;;;0.33;0.33;;;;;;;;5086986;27;45841;-81
2022/09/26 06:05:41;;;;;;;;;1.00;1.00;;;;;;;;5087912;27;46022;-81
2022/09/26 06:08:07;;;;;;;;;2.00;1.00;;;;;;;;5086181;27;45533;-81
2022/09/26 06:10:33;;;;;;;;;0.67;0.67;;;;;;;;5101429;27;45556;-80
2022/09/26 06:13:02;;;;;;;;;4.00;2.00;;;;;;;;5109683;27;45942;-84
2022/09/26 06:15:28;;;;;;;;;2.00;1.00;;;;;;;;5108520;27;45801;-83
2022/09/26 06:17:58;;;;;;;;;1.67;0.67;;;;;;;;5115545;27;45419;-82
2022/09/26 06:20:24;;;;;;;;;1.00;1.00;;;;;;;;5096126;27;45491;-81
2022/09/26 06:22:51;;;;;;;;;0.00;0.00;;;;;;;;5118451;27;45809;-83
2022/09/26 06:25:17;;;;;;;;;1.67;1.00;;;;;;;;5104456;27;45788;-79
2022/09/26 06:27:42;;;;;;;;;1.00;1.00;;;;;;;;5104891;27;45560;-79
2022/09/26 06:30:09;;;;;;;;;2.00;0.00;;;;;;;;5112803;27;46053;-78
2022/09/26 06:32:35;;;;;;;;;1.67;1.67;;;;;;;;5099612;27;45455;-81
2022/09/26 06:35:02;;;;;;;;;1.00;1.00;;;;;;;;5090585;27;47669;-83
2022/09/26 06:37:27;;;;;;;;;1.33;1.00;;;;;;;;5090501;27;45978;-81
2022/09/26 06:39:53;;;;;;;;;1.00;1.00;;;;;;;;5116649;27;45811;-86
2022/09/26 06:42:18;;;;;;;;;1.33;1.33;;;;;;;;5104905;27;45769;-87
2022/09/26 06:44:43;;;;;;;;;2.00;0.00;;;;;;;;5097669;27;46697;-88
2022/09/26 06:47:09;;;;;;;;;0.00;0.00;;;;;;;;5095353;27;46214;-88
2022/09/26 06:49:38;;;;;;;;;1.00;1.00;;;;;;;;5087194;27;45576;-82
2022/09/26 06:52:18;;;;;;;;;2.33;1.00;;;;;;;;5117130;27;45509;-83
2022/09/26 06:54:46;;;;;;;;;1.00;1.00;;;;;;;;5096323;27;46133;-84
2022/09/26 06:57:13;;;;;;;;;1.00;1.00;;;;;;;;5124031;27;45978;-86
2022/09/26 06:59:38;;;;;;;;;2.00;1.00;;;;;;;;5099645;27;45776;-83
2022/09/26 07:02:05;;;;;;;;;0.33;0.33;;;;;;;;5104790;27;45791;-82
2022/09/26 07:04:36;;;;;;;;;3.00;0.00;;;;;;;;5081180;27;45640;-87
2022/09/26 07:07:01;;;;;;;;;0.33;0.33;;;;;;;;5098603;27;45465;-83
2022/09/26 07:09:36;;;;;;;;;;;;;;;;;;;;;
2022/09/26 07:12:04;;;;;;;;;0.33;0.33;;;;;;;;5113483;27;74260;-84
2022/09/26 07:14:37;;;;;;;;;1.00;1.00;;;;;;;;5089142;27;47076;-81
2022/09/26 07:17:14;;;;;;;;;;;;;;;;;;;;;
2022/09/26 07:20:08;;;;;;;;;;;;;;;;;;;;;
2022/09/26 07:22:34;;;;;;;;;1.00;1.00;;;;;;;;5108675;27;74337;-88
2022/09/26 07:25:03;;;;;;;;;1.00;1.00;;;;;;;;5098774;27;47034;-84
2022/09/26 07:27:28;;;;;;;;;1.00;1.00;;;;;;;;5087200;27;45840;-87
2022/09/26 07:29:59;;;;;;;;;1.00;1.00;;;;;;;;5104077;27;45993;-84
2022/09/26 07:32:32;;;;;;;;;0.67;0.67;;;;;;;;5101442;27;45393;-81
2022/09/26 07:35:09;;;;;;;;;0.67;0.33;;;;;;;;5091320;27;46715;-82
2022/09/26 07:37:35;;;;;;;;;1.00;1.00;;;;;;;;5090489;27;45593;-83
2022/09/26 07:40:13;;;;;;;;;2.33;1.00;;;;;;;;5109391;27;45438;-83
2022/09/26 07:42:41;;;;;;;;;0.00;0.00;;;;;;;;5087129;27;45523;-83
2022/09/26 07:45:09;;;;;;;;;1.00;1.00;;;;;;;;5111111;27;45397;-83
2022/09/26 07:50:19;;;;;;;;;0.67;0.67;;;;;;;;5109231;27;45727;-80
2022/09/26 07:52:46;;;;;;;;;0.00;0.00;;;;;;;;5125571;27;45723;-81
2022/09/26 07:55:13;;;;;;;;;1.00;1.00;;;;;;;;5095155;27;46899;-82
2022/09/26 07:57:45;;;;;;;;;1.00;1.00;;;;;;;;5107649;27;45816;-83
2022/09/26 08:00:36;;;;;;;;;1.00;1.00;;;;;;;;5102870;27;45279;-82
2022/09/26 08:03:05;;;;;;;;;2.00;1.00;;;;;;;;5114041;27;45520;-84
2022/09/26 08:05:31;;;;;;;;;0.00;0.00;;;;;;;;5111120;27;45529;-82
2022/09/26 08:07:57;;;;;;;;;2.33;1.33;;;;;;;;5094444;27;45602;-84
2022/09/26 08:13:31;;;;;;;;;1.00;1.00;;;;;;;;5095235;27;45820;-83
2022/09/26 08:16:38;;;;;;;;;;;;;;;;;;;;;
2022/09/26 08:19:10;;;;;;;;;2.67;2.00;;;;;;;;5110562;27;73359;-81
2022/09/26 08:22:16;;;;;;;;;2.00;1.00;;;;;;;;5066372;27;45729;-80
2022/09/26 08:25:10;;;;;;;;;;;;;;;;;;;;;
2022/09/26 08:27:50;;;;;;;;;0.00;0.00;;;;;;;;5111997;27;74962;-84
2022/09/26 08:30:58;;;;;;;;;2.00;1.00;;;;;;;;5108221;27;45722;-82
2022/09/26 08:36:22;;;;;;;;;0.33;0.33;;;;;;;;5107608;27;45431;-82
2022/09/26 08:39:26;;;;;;;;;0.67;0.00;;;;;;;;5084854;27;46245;-83
2022/09/26 08:42:33;;;;;;;;;1.00;1.00;;;;;;;;5093408;27;45709;-82
2022/09/26 08:48:43;;;;;;;;;2.00;1.00;;;;;;;;5110501;27;46545;-83
2022/09/26 08:51:45;;;;;;;;;1.00;1.00;;;;;;;;5105644;27;45530;-83
2022/09/26 08:57:34;;;;;;;;;1.33;1.00;;;;;;;;5068421;27;45587;-81
2022/09/26 09:00:28;;;;;;;;;;;;;;;;;;;;;
2022/09/26 09:03:13;;;;;;;;;3.00;2.00;;;;;;;;5085724;27;75415;-85
2022/09/26 09:11:45;;;;;;;;;2.00;0.33;;;;;;;;5048273;28;45457;-79
2022/09/26 09:14:29;;;;;;;;;0.00;0.00;;;;;;;;5081474;27;46136;-78
2022/09/26 09:17:09;;;;;;;;;1.00;1.00;;;;;;;;5111927;27;45302;-81
2022/09/26 09:19:53;;;;;;;;;2.33;2.33;;;;;;;;5100148;27;45481;-81
2022/09/26 09:25:43;;;;;;;;;0.00;0.00;;;;;;;;5107061;27;45415;-79
2022/09/26 09:28:29;;;;;;;;;2.00;0.33;;;;;;;;5106507;27;45810;-82
2022/09/26 09:30:59;;;;;;;;;1.00;1.00;;;;;;;;5103477;27;46003;-81
2022/09/26 09:33:27;;;;;;;;;2.00;1.00;;;;;;;;5113448;27;45767;-80
2022/09/26 09:35:56;;;;;;;;;0.67;0.67;;;;;;;;5096966;27;48037;-79
2022/09/26 09:38:24;;;;;;;;;1.00;1.00;;;;;;;;5106174;27;45554;-80
2022/09/26 09:40:56;;;;;;;;;1.00;1.00;;;;;;;;5088752;27;45528;-76
2022/09/26 09:43:51;;;;;;;;;1.33;0.67;;;;;;;;5113822;27;45803;-81
2022/09/26 09:46:40;;;;;;;;;1.00;1.00;;;;;;;;5104574;27;45512;-82
2022/09/26 09:49:10;;;;;;;;;0.33;0.33;;;;;;;;5092404;27;45461;-81
2022/09/26 09:51:55;;;;;;;;;0.00;0.00;;;;;;;;5089927;27;45703;-80
2022/09/26 09:54:37;;;;;;;;;2.00;0.00;;;;;;;;5085731;27;45659;-83
2022/09/26 09:57:21;;;;;;;;;2.67;1.00;;;;;;;;5111545;27;45944;-82
2022/09/26 10:00:04;;;;;;;;;1.00;1.00;;;;;;;;5096838;27;45557;-82
2022/09/26 10:02:37;;;;;;;;;2.67;1.00;;;;;;;;5115242;27;45841;-81
2022/09/26 10:05:41;;;;;;;;;0.67;0.67;;;;;;;;5110649;27;45717;-81
2022/09/26 10:08:12;;;;;;;;;1.00;1.00;;;;;;;;5094964;27;45711;-80
2022/09/26 10:10:58;;;;;;;;;1.33;1.00;;;;;;;;5109532;27;45535;-81
2022/09/26 10:13:25;;;;;;;;;0.00;0.00;;;;;;;;5117623;27;45425;-78
2022/09/26 10:15:57;;;;;;;;;2.00;2.00;;;;;;;;5117454;27;45690;-83
2022/09/26 10:18:24;;;;;;;;;1.67;1.67;;;;;;;;5101748;27;45826;-83
2022/09/26 10:20:53;;;;;;;;;2.00;2.00;;;;;;;;5091409;27;45466;-78
2022/09/26 10:23:25;;;;;;;;;0.00;0.00;;;;;;;;5090132;27;45766;-81
2022/09/26 10:25:59;;;;;;;;;1.00;1.00;;;;;;;;5093969;27;46081;-83
2022/09/26 10:28:43;;;;;;;;;1.00;1.00;;;;;;;;5109662;27;46242;-82
2022/09/26 10:31:23;;;;;;;;;1.33;1.00;;;;;;;;5087946;27;45735;-84
2022/09/26 10:37:24;;;;;;;;;1.00;1.00;;;;;;;;5092693;27;45740;-82
2022/09/26 10:43:23;;;;;;;;;1.00;0.00;;;;;;;;5116137;27;45832;-84
2022/09/26 10:46:12;;;;;;;;;0.00;0.00;;;;;;;;5086060;27;45822;-79
2022/09/26 10:49:13;;;;;;;;;1.00;1.00;;;;;;;;5101494;27;45843;-82
2022/09/26 10:51:53;;;;;;;;;2.67;1.67;;;;;;;;5037645;27;46907;-83
2022/09/26 10:54:28;;;;;;;;;4.33;4.33;;;;;;;;5092603;27;45902;-82
2022/09/26 10:57:08;;;;;;;;;2.00;1.00;;;;;;;;5110816;27;45448;-86
2022/09/26 10:59:42;;;;;;;;;1.67;1.00;;;;;;;;5088714;27;45534;-80
2022/09/26 11:02:27;;;;;;;;;;;;;;;;;;;;;
2022/09/26 11:07:41;;;;;;;;;2.67;2.00;;;;;;;;5101384;27;45922;-81
2022/09/26 11:10:09;;;;;;;;;1.00;1.00;;;;;;;;5110031;27;45553;-78
2022/09/26 11:12:57;;;;;;;;;1.00;1.00;;;;;;;;5104418;27;46178;-81
2022/09/26 11:15:43;;;;;;;;;4.33;2.00;;;;;;;;5105090;27;45367;-81
2022/09/26 11:18:21;;;;;;;;;1.33;1.33;;;;;;;;5089879;27;45442;-82
2022/09/26 11:21:20;;;;;;;;;1.00;1.00;;;;;;;;5084018;27;45444;-82
2022/09/26 11:27:25;;;;;;;;;;;;;;;;;;;;;
2022/09/26 11:30:21;;;;;;;;;;;;;;;;;;;;;
2022/09/26 11:39:01;;;;;;;;;4.00;3.33;;;;;;;;5105316;27;45801;-84
2022/09/26 11:41:47;;;;;;;;;1.00;1.00;;;;;;;;5088213;27;45499;-77
2022/09/26 11:44:16;;;;;;;;;1.00;1.00;;;;;;;;5112192;27;45393;-77
2022/09/26 11:47:00;;;;;;;;;1.00;1.00;;;;;;;;5100645;27;45370;-80
2022/09/26 11:50:06;;;;;;;;;2.00;2.00;;;;;;;;5105124;27;45739;-79
2022/09/26 11:52:41;;;;;;;;;4.33;2.33;;;;;;;;5071935;27;45599;-78
2022/09/26 11:55:41;;;;;;;;;2.00;2.00;;;;;;;;5115217;27;45676;-80
2022/09/26 11:58:32;;;;;;;;;0.00;0.00;;;;;;;;5108962;27;46421;-82
2022/09/26 12:01:18;;;;;;;;;1.00;1.00;;;;;;;;5094234;27;45483;-85
2022/09/26 12:04:14;;;;;;;;;3.00;3.00;;;;;;;;5115195;27;45498;-82
2022/09/26 12:07:01;;;;;;;;;2.00;1.00;;;;;;;;5103131;27;45412;-83
2022/09/26 12:10:06;;;;;;;;;;;;;;;;;;;;;
2022/09/26 12:13:00;;;;;;;;;2.33;1.00;;;;;;;;5091077;27;71937;-83
2022/09/26 12:15:44;;;;;;;;;1.67;1.67;;;;;;;;5092497;27;45417;-85
2022/09/26 12:19:01;;;;;;;;;0.00;0.00;;;;;;;;5112251;27;45887;-84
2022/09/26 12:21:30;;;;;;;;;3.00;2.00;;;;;;;;5027952;28;45519;-85
2022/09/26 12:24:09;;;;;;;;;2.00;2.00;;;;;;;;5063837;27;45444;-81
2022/09/26 12:27:06;;;;;;;;;1.00;1.00;;;;;;;;5106260;27;45754;-83
2022/09/26 12:33:12;;;;;;;;;1.67;1.67;;;;;;;;5090713;27;46044;-81
2022/09/26 12:36:17;;;;;;;;;0.67;0.67;;;;;;;;5086095;27;45652;-80
2022/09/26 12:39:09;;;;;;;;;1.00;1.00;;;;;;;;5096647;27;45690;-82
2022/09/26 12:45:10;;;;;;;;;0.33;0.33;;;;;;;;5034879;28;45512;-81
2022/09/26 12:48:13;;;;;;;;;1.00;0.00;;;;;;;;5040221;28;45493;-80
2022/09/26 12:51:21;;;;;;;;;0.00;0.00;;;;;;;;5085666;27;45434;-82
2022/09/26 12:54:17;;;;;;;;;0.67;0.67;;;;;;;;5092825;27;45774;-82
2022/09/26 12:57:07;;;;;;;;;1.00;0.67;;;;;;;;5002352;28;47555;-82
2022/09/26 12:59:54;;;;;;;;;0.00;0.00;;;;;;;;5024586;28;45453;-81
2022/09/26 13:03:04;;;;;;;;;1.00;1.00;;;;;;;;5084903;27;45426;-80
2022/09/26 13:12:34;;;;;;;;;;;;;;;;;;;;;
2022/09/26 13:15:23;;;;;;;;;0.67;0.67;;;;;;;;5076746;27;68867;-80
2022/09/26 13:21:27;;;;;;;;;1.33;0.33;;;;;;;;5029300;28;45908;-81
2022/09/26 13:30:24;;;;;;;;;3.00;0.00;;;;;;;;5068366;27;45956;-82
2022/09/26 13:32:53;;;;;;;;;0.00;0.00;;;;;;;;5084063;27;45409;-83
2022/09/26 13:35:23;;;;;;;;;0.00;0.00;;;;;;;;5089061;27;45991;-82
2022/09/26 13:38:08;;;;;;;;;0.33;0.33;;;;;;;;5069596;27;45592;-82
2022/09/26 13:40:55;;;;;;;;;0.00;0.00;;;;;;;;5069831;28;46079;-82
2022/09/26 13:43:42;;;;;;;;;0.00;0.00;;;;;;;;5080738;27;45448;-79
2022/09/26 13:46:14;;;;;;;;;0.00;0.00;;;;;;;;5086234;27;45359;-79
2022/09/26 13:48:47;;;;;;;;;0.67;0.67;;;;;;;;5083986;27;45637;-81
2022/09/26 13:51:20;;;;;;;;;0.00;0.00;;;;;;;;5073542;27;46560;-81
2022/09/26 13:53:52;;;;;;;;;1.00;1.00;;;;;;;;5069681;27;48057;-77
2022/09/26 13:56:33;;;;;;;;;0.00;0.00;;;;;;;;5082859;27;45762;-80
2022/09/26 13:59:11;;;;;;;;;0.33;0.00;;;;;;;;5088165;27;45993;-78
2022/09/26 14:01:36;;;;;;;;;1.00;1.00;;;;;;;;5084389;27;45567;-78
2022/09/26 14:04:16;;;;;;;;;0.00;0.00;;;;;;;;5110970;27;46578;-77
2022/09/26 14:07:00;;;;;;;;;5.67;5.67;;;;;;;;5084619;27;45564;-82
2022/09/26 14:09:38;;;;;;;;;1.00;1.00;;;;;;;;5088244;27;45450;-81
2022/09/26 14:12:17;;;;;;;;;2.00;1.00;;;;;;;;5106589;27;46167;-78
2022/09/26 14:14:43;;;;;;;;;0.00;0.00;;;;;;;;5099012;27;46758;-81
2022/09/26 14:17:47;;;;;;;;;1.00;0.00;;;;;;;;5088411;27;45597;-81
2022/09/26 14:20:22;;;;;;;;;0.00;0.00;;;;;;;;5027570;28;45939;-82
2022/09/26 14:22:51;;;;;;;;;0.00;0.00;;;;;;;;5027874;28;45522;-79
2022/09/26 14:25:35;;;;;;;;;2.00;0.67;;;;;;;;5066843;27;45560;-81
2022/09/26 14:28:16;;;;;;;;;0.00;0.00;;;;;;;;5106368;27;45397;-80
2022/09/26 14:31:01;;;;;;;;;0.00;0.00;;;;;;;;5110363;27;45763;-80
2022/09/26 14:33:26;;;;;;;;;0.33;0.00;;;;;;;;5107428;27;45473;-81
2022/09/26 14:36:11;;;;;;;;;0.00;0.00;;;;;;;;5110145;27;45550;-81
2022/09/26 14:38:38;;;;;;;;;1.00;0.00;;;;;;;;5093171;27;45785;-83
2022/09/26 14:41:04;;;;;;;;;1.67;1.67;;;;;;;;5113911;27;45666;-83
2022/09/26 14:43:31;;;;;;;;;0.00;0.00;;;;;;;;5119365;27;45486;-82
2022/09/26 14:46:17;;;;;;;;;0.00;0.00;;;;;;;;5095485;27;46653;-81
2022/09/26 14:48:43;;;;;;;;;0.00;0.00;;;;;;;;5118738;27;45566;-83
2022/09/26 14:51:09;;;;;;;;;0.33;0.00;;;;;;;;5095587;27;45774;-80
2022/09/26 14:53:40;;;;;;;;;0.00;0.00;;;;;;;;5116646;27;45657;-82
2022/09/26 14:56:11;;;;;;;;;0.00;0.00;;;;;;;;5097009;27;46387;-82
2022/09/26 14:58:36;;;;;;;;;0.00;0.00;;;;;;;;5113948;27;45689;-79
2022/09/26 15:01:13;;;;;;;;;0.33;0.33;;;;;;;;5125027;27;45784;-79
2022/09/26 15:03:39;;;;;;;;;0.00;0.00;;;;;;;;5129417;27;45602;-84
2022/09/26 15:06:07;;;;;;;;;1.00;1.00;;;;;;;;5115348;27;45513;-85
2022/09/26 15:08:34;;;;;;;;;0.00;0.00;;;;;;;;5113164;27;45848;-80
2022/09/26 15:11:00;;;;;;;;;0.33;0.00;;;;;;;;5097502;27;45824;-78
2022/09/26 15:13:31;;;;;;;;;0.00;0.00;;;;;;;;5114479;27;45860;-79
2022/09/26 15:16:02;;;;;;;;;1.33;0.00;;;;;;;;5110075;27;46231;-80
2022/09/26 15:18:27;;;;;;;;;0.00;0.00;;;;;;;;5101268;27;45430;-79
2022/09/26 15:21:04;;;;;;;;;0.00;0.00;;;;;;;;5089541;27;45596;-80
2022/09/26 15:23:31;;;;;;;;;0.00;0.00;;;;;;;;5107040;27;45865;-80
2022/09/26 15:25:59;;;;;;;;;1.00;1.00;;;;;;;;5101700;27;46072;-78
2022/09/26 15:28:25;;;;;;;;;1.00;0.00;;;;;;;;5101392;27;45508;-81
2022/09/26 15:31:10;;;;;;;;;0.33;0.33;;;;;;;;5086636;27;45366;-79
2022/09/26 15:33:37;;;;;;;;;0.00;0.00;;;;;;;;5088435;27;45940;-78
2022/09/26 15:36:05;;;;;;;;;2.00;0.00;;;;;;;;5103760;27;45855;-79
2022/09/26 15:38:31;;;;;;;;;0.00;0.00;;;;;;;;5103008;27;45550;-82
2022/09/26 15:41:01;;;;;;;;;1.00;1.00;;;;;;;;5111199;27;46032;-83
2022/09/26 15:43:26;;;;;;;;;0.00;0.00;;;;;;;;5111280;27;45842;-82
2022/09/26 15:45:58;;;;;;;;;1.00;0.00;;;;;;;;5110120;27;46778;-84
2022/09/26 15:48:24;;;;;;;;;1.00;0.00;;;;;;;;5110108;27;46063;-81
2022/09/26 15:50:52;;;;;;;;;0.67;0.67;;;;;;;;5113945;27;45487;-83
2022/09/26 15:53:22;;;;;;;;;1.00;1.00;;;;;;;;5089231;27;45752;-79
2022/09/26 15:55:56;;;;;;;;;4.67;0.00;;;;;;;;5088917;27;45802;-84
2022/09/26 15:58:29;;;;;;;;;1.00;1.00;;;;;;;;5109657;27;45541;-84
2022/09/26 16:01:12;;;;;;;;;1.00;1.00;;;;;;;;5119357;27;46029;-83
2022/09/26 16:04:09;;;;;;;;;;;;;;;;;;;;;
2022/09/26 16:07:07;;;;;;;;;2.00;2.00;;;;;;;;5089973;27;73898;-81
2022/09/26 16:09:36;;;;;;;;;2.33;2.33;;;;;;;;5089661;27;45547;-83
2022/09/26 16:12:30;;;;;;;;;2.00;0.00;;;;;;;;5095400;27;46213;-81
2022/09/26 16:15:23;;;;;;;;;2.00;1.00;;;;;;;;5087322;27;45624;-85
2022/09/26 16:17:50;;;;;;;;;3.00;1.67;;;;;;;;5091615;27;46709;-82
2022/09/26 16:20:21;;;;;;;;;0.67;0.33;;;;;;;;5068612;27;45551;-82
2022/09/26 16:22:52;;;;;;;;;1.33;1.33;;;;;;;;5087256;27;45488;-81
2022/09/26 16:25:17;;;;;;;;;2.33;1.33;;;;;;;;5089156;27;45865;-82
2022/09/26 16:27:45;;;;;;;;;5.67;2.00;;;;;;;;5070261;27;46715;-82
2022/09/26 16:30:20;;;;;;;;;2.33;0.00;;;;;;;;5086737;27;45704;-79
2022/09/26 16:32:46;;;;;;;;;2.00;2.00;;;;;;;;5073239;27;45763;-82
2022/09/26 16:35:22;;;;;;;;;2.67;1.33;;;;;;;;5079654;27;45940;-83
2022/09/26 16:38:22;;;;;;;;;1.67;1.33;;;;;;;;5087153;27;45848;-81
2022/09/26 16:40:51;;;;;;;;;3.00;1.67;;;;;;;;5085446;27;45938;-82
2022/09/26 16:43:36;;;;;;;;;1.00;1.00;;;;;;;;5079236;27;45815;-81
2022/09/26 16:49:33;;;;;;;;;0.33;0.33;;;;;;;;5003751;28;46106;-83
2022/09/26 16:52:48;;;;;;;;;0.33;0.33;;;;;;;;5079897;27;45991;-84